Time;durP1;ratioP1;P1;durP2;ratioP2;P2;SDS_P1;SDS_P2;PMS_P1;PMS_P2;Temp;Humidity;BMP_temperature;BMP_pressure;BME280_temperature;BME280_humidity;BME280_pressure;Samples;Min_cycle;Max_cycle;Signal;HPM_P1;HPM_P2
2024/04/08 00:00:24;;;;;;;6.33;3.10;;;13.80;99.90;;;;;;5034297;28;20480;-65
2024/04/08 00:02:50;;;;;;;6.00;2.60;;;13.70;99.90;;;;;;5033435;28;20499;-66
2024/04/08 00:05:16;;;;;;;8.20;2.93;;;13.70;99.90;;;;;;5033462;28;20440;-65
2024/04/08 00:07:44;;;;;;;7.40;2.73;;;13.70;99.90;;;;;;5034098;28;20503;-65
2024/04/08 00:10:11;;;;;;;3.73;2.87;;;13.70;99.90;;;;;;5035947;28;20445;-65
2024/04/08 00:12:39;;;;;;;3.57;3.00;;;13.70;99.90;;;;;;5036415;28;20631;-66
2024/04/08 00:15:06;;;;;;;6.70;3.03;;;13.70;99.90;;;;;;5035740;28;20451;-65
2024/04/08 00:17:33;;;;;;;4.97;3.00;;;13.60;99.90;;;;;;5037278;28;20519;-66
2024/04/08 00:19:59;;;;;;;7.07;3.50;;;13.60;99.90;;;;;;5033560;28;20935;-65
2024/04/08 00:22:26;;;;;;;6.57;3.30;;;13.60;99.90;;;;;;5032865;28;20457;-64
2024/04/08 00:24:51;;;;;;;5.90;2.70;;;13.60;99.90;;;;;;5033738;28;20449;-64
2024/04/08 00:27:20;;;;;;;5.10;2.70;;;13.60;99.90;;;;;;5032627;28;20938;-63
2024/04/08 00:29:45;;;;;;;5.83;3.00;;;13.60;99.90;;;;;;5035938;28;20206;-65
2024/04/08 00:32:13;;;;;;;6.23;2.87;;;13.60;99.90;;;;;;5037428;28;20501;-65
2024/04/08 00:34:39;;;;;;;6.33;3.30;;;13.70;99.90;;;;;;5038499;28;20538;-65
2024/04/08 00:37:06;;;;;;;3.83;2.70;;;13.70;99.90;;;;;;5039880;28;20564;-65
2024/04/08 00:39:32;;;;;;;6.30;3.20;;;13.70;99.90;;;;;;5037463;28;20444;-66
2024/04/08 00:41:59;;;;;;;4.83;3.03;;;13.80;99.90;;;;;;5036772;28;20464;-65
2024/04/08 00:44:27;;;;;;;4.20;3.00;;;13.80;99.90;;;;;;5036311;28;20935;-66
2024/04/08 00:46:54;;;;;;;5.33;2.83;;;13.80;99.90;;;;;;5036543;28;20437;-65
2024/04/08 00:49:21;;;;;;;4.70;3.23;;;13.80;99.90;;;;;;5036276;28;20965;-64
2024/04/08 00:51:48;;;;;;;6.60;3.07;;;13.80;99.90;;;;;;5036507;28;20471;-65
2024/04/08 00:54:14;;;;;;;7.13;3.37;;;13.80;99.90;;;;;;5036474;28;20631;-65
2024/04/08 00:56:43;;;;;;;3.63;2.93;;;13.80;99.90;;;;;;5036374;28;21058;-64
2024/04/08 00:59:12;;;;;;;5.63;3.17;;;13.80;99.90;;;;;;5036626;28;20201;-65
2024/04/08 01:01:41;;;;;;;8.10;2.67;;;13.80;99.90;;;;;;5036114;28;20473;-64
2024/04/08 01:04:07;;;;;;;3.67;3.30;;;13.80;99.90;;;;;;5036749;28;20452;-64
2024/04/08 01:06:34;;;;;;;4.50;2.87;;;13.80;99.90;;;;;;5036660;28;20547;-65
2024/04/08 01:09:00;;;;;;;4.03;3.10;;;13.80;99.90;;;;;;5036748;28;20447;-63
2024/04/08 01:11:28;;;;;;;3.90;2.73;;;13.80;99.90;;;;;;5037352;28;20464;-64
2024/04/08 01:13:55;;;;;;;6.20;2.90;;;13.80;99.90;;;;;;5036496;28;20454;-65
2024/04/08 01:16:21;;;;;;;5.00;3.17;;;13.80;99.90;;;;;;5036404;28;20487;-65
2024/04/08 01:18:49;;;;;;;5.93;2.83;;;13.80;99.90;;;;;;5036578;28;20445;-65
2024/04/08 01:21:15;;;;;;;5.90;3.37;;;13.80;99.90;;;;;;5036384;28;20471;-65
2024/04/08 01:23:44;;;;;;;5.70;2.80;;;13.80;99.90;;;;;;5035873;28;20444;-65
2024/04/08 01:26:10;;;;;;;3.40;2.63;;;13.80;99.90;;;;;;5036055;28;20671;-65
2024/04/08 01:28:39;;;;;;;4.40;3.23;;;13.80;99.90;;;;;;5036964;28;20448;-65
2024/04/08 01:31:05;;;;;;;4.63;2.80;;;13.80;99.90;;;;;;5035974;28;20444;-64
2024/04/08 01:33:32;;;;;;;7.80;2.77;;;13.80;99.90;;;;;;5042348;28;20911;-66
2024/04/08 01:35:59;;;;;;;5.77;3.13;;;13.70;99.90;;;;;;5036724;28;20477;-65
2024/04/08 01:38:26;;;;;;;4.87;2.23;;;13.70;99.90;;;;;;5035991;28;20445;-65
2024/04/08 01:40:54;;;;;;;5.47;3.20;;;13.70;99.90;;;;;;5034948;28;20441;-65
2024/04/08 01:43:21;;;;;;;5.67;2.60;;;13.70;99.90;;;;;;5035586;28;20862;-65
2024/04/08 01:45:46;;;;;;;5.93;3.70;;;13.70;99.90;;;;;;5035690;28;20443;-66
2024/04/08 01:48:13;;;;;;;5.40;3.00;;;13.70;99.90;;;;;;5035652;28;20436;-66
2024/04/08 01:50:39;;;;;;;3.57;3.10;;;13.70;99.90;;;;;;5035422;28;20680;-67
2024/04/08 01:53:06;;;;;;;4.17;2.80;;;13.70;99.90;;;;;;5035640;28;20465;-67
2024/04/08 01:55:31;;;;;;;4.27;3.27;;;13.70;99.90;;;;;;5035653;28;20451;-66
2024/04/08 01:58:00;;;;;;;8.27;3.40;;;13.60;99.90;;;;;;5036188;28;20544;-67
2024/04/08 02:00:25;;;;;;;4.57;3.03;;;13.60;99.90;;;;;;5036016;28;20205;-67
2024/04/08 02:02:52;;;;;;;8.13;3.23;;;13.60;99.90;;;;;;5073888;22;20864;-65
2024/04/08 02:05:18;;;;;;;5.60;3.30;;;13.60;99.90;;;;;;5056388;28;20208;-65
2024/04/08 02:07:45;;;;;;;7.57;3.73;;;13.60;99.90;;;;;;5056235;28;20934;-65
2024/04/08 02:10:11;;;;;;;3.23;2.77;;;13.50;99.90;;;;;;5056380;28;20270;-65
2024/04/08 02:12:38;;;;;;;8.90;3.33;;;13.50;99.90;;;;;;5056567;28;20965;-65
2024/04/08 02:15:06;;;;;;;4.93;3.70;;;13.50;99.90;;;;;;5055998;28;20208;-66
2024/04/08 02:17:32;;;;;;;7.33;3.50;;;13.50;99.90;;;;;;5055941;28;20478;-65
2024/04/08 02:19:58;;;;;;;5.70;4.00;;;13.50;99.90;;;;;;5055723;28;20462;-64
2024/04/08 02:22:25;;;;;;;5.40;4.10;;;13.40;99.90;;;;;;5055703;28;20981;-65
2024/04/08 02:24:51;;;;;;;9.00;4.17;;;13.40;99.90;;;;;;5055540;28;20508;-64
2024/04/08 02:27:17;;;;;;;5.60;4.03;;;13.40;99.90;;;;;;5055266;28;20447;-64
2024/04/08 02:29:45;;;;;;;4.90;4.00;;;13.30;99.90;;;;;;5055364;28;20527;-65
2024/04/08 02:32:14;;;;;;;6.20;4.23;;;13.40;99.90;;;;;;5055128;28;20468;-65
2024/04/08 02:34:40;;;;;;;9.53;4.83;;;13.30;99.90;;;;;;5055736;28;20880;-64
2024/04/08 02:37:06;;;;;;;6.70;4.37;;;13.30;99.90;;;;;;5055197;28;20482;-65
2024/04/08 02:39:32;;;;;;;8.13;3.90;;;13.30;99.90;;;;;;5055090;28;20450;-64
2024/04/08 02:41:59;;;;;;;7.00;4.37;;;13.30;99.90;;;;;;5055419;28;20982;-65
2024/04/08 02:44:25;;;;;;;8.53;5.27;;;13.30;99.90;;;;;;5055065;28;20619;-65
2024/04/08 02:46:51;;;;;;;8.10;4.90;;;13.30;99.90;;;;;;5055388;28;20439;-65
2024/04/08 02:49:19;;;;;;;4.87;3.67;;;13.30;99.90;;;;;;5055363;28;20205;-65
2024/04/08 02:51:45;;;;;;;5.03;3.40;;;13.20;99.90;;;;;;5054300;28;20459;-65
2024/04/08 02:54:11;;;;;;;4.27;3.13;;;13.20;99.90;;;;;;5054768;28;20443;-65
2024/04/08 02:56:38;;;;;;;5.87;3.67;;;13.10;99.90;;;;;;5055224;28;20480;-65
2024/04/08 02:59:04;;;;;;;6.67;3.57;;;13.10;99.90;;;;;;5055216;28;20205;-64
2024/04/08 03:01:30;;;;;;;5.13;3.30;;;13.10;99.90;;;;;;5055148;28;20464;-65
2024/04/08 03:03:56;;;;;;;6.13;3.43;;;13.10;99.90;;;;;;5054938;28;20535;-65
2024/04/08 03:06:25;;;;;;;5.17;3.60;;;13.00;99.90;;;;;;5055335;28;20440;-65
2024/04/08 03:08:50;;;;;;;4.93;3.30;;;13.00;99.90;;;;;;5055055;28;20725;-65
2024/04/08 03:11:17;;;;;;;5.33;2.83;;;13.00;99.90;;;;;;5055150;28;20440;-65
2024/04/08 03:13:44;;;;;;;4.80;3.17;;;13.00;99.90;;;;;;5054619;28;20206;-65
2024/04/08 03:16:11;;;;;;;6.73;2.70;;;13.00;99.90;;;;;;5054768;28;20475;-65
2024/04/08 03:18:37;;;;;;;6.67;3.20;;;12.90;99.90;;;;;;5055080;28;20436;-65
2024/04/08 03:21:05;;;;;;;4.90;2.77;;;12.90;99.90;;;;;;5062603;28;20440;-65
2024/04/08 03:23:32;;;;;;;9.17;3.50;;;12.90;99.90;;;;;;5065535;28;20229;-65
2024/04/08 03:25:59;;;;;;;6.27;3.30;;;12.90;99.90;;;;;;5063177;28;20444;-65
2024/04/08 03:28:25;;;;;;;4.67;3.60;;;12.90;99.90;;;;;;5061963;28;20938;-65
2024/04/08 03:30:52;;;;;;;4.50;3.00;;;12.90;99.90;;;;;;5062140;28;20458;-65
2024/04/08 03:33:19;;;;;;;4.83;3.53;;;12.90;99.90;;;;;;5061304;28;20468;-66
2024/04/08 03:35:47;;;;;;;4.73;3.13;;;12.90;99.90;;;;;;5061860;28;20443;-66
2024/04/08 03:38:13;;;;;;;5.63;3.03;;;12.80;99.90;;;;;;5060340;28;20441;-65
2024/04/08 03:40:42;;;;;;;7.70;4.60;;;12.80;99.90;;;;;;5056437;28;20443;-65
2024/04/08 03:43:09;;;;;;;5.03;3.10;;;12.80;99.90;;;;;;5054995;28;20459;-63
2024/04/08 03:45:37;;;;;;;7.10;3.77;;;12.80;99.90;;;;;;5054723;28;20463;-65
2024/04/08 03:48:04;;;;;;;7.67;3.70;;;12.80;99.90;;;;;;5054310;28;20436;-65
2024/04/08 03:50:30;;;;;;;4.03;3.20;;;12.80;99.90;;;;;;5054045;28;20526;-65
2024/04/08 03:52:58;;;;;;;8.87;3.10;;;12.80;99.90;;;;;;5053745;28;20464;-64
2024/04/08 03:55:23;;;;;;;6.97;3.40;;;12.70;99.90;;;;;;5054642;28;20875;-65
2024/04/08 03:57:51;;;;;;;5.43;3.40;;;12.70;99.90;;;;;;5053811;28;20468;-65
2024/04/08 04:00:18;;;;;;;8.17;3.33;;;12.70;99.90;;;;;;5053966;28;20209;-64
2024/04/08 04:02:44;;;;;;;6.30;3.13;;;12.60;99.90;;;;;;5053302;28;20475;-65
2024/04/08 04:05:11;;;;;;;5.30;3.23;;;12.60;99.90;;;;;;5054082;28;20830;-65
2024/04/08 04:07:37;;;;;;;4.97;3.53;;;12.50;99.90;;;;;;5053991;28;20201;-65
2024/04/08 04:15:20;;;;;;;3.80;3.20;;;12.50;99.90;;;;;;5546523;25;20578;-65
2024/04/08 04:17:46;;;;;;;4.93;3.30;;;12.60;99.90;;;;;;5546440;25;20585;-66
2024/04/08 04:20:16;;;;;;;10.03;3.30;;;12.60;99.90;;;;;;5546835;25;20444;-66
2024/04/08 04:22:42;;;;;;;10.17;4.30;;;12.60;99.90;;;;;;5548340;25;20254;-66
2024/04/08 04:25:11;;;;;;;5.83;3.57;;;12.60;99.90;;;;;;5560120;25;20538;-65
2024/04/08 04:27:36;;;;;;;8.33;3.93;;;12.60;99.90;;;;;;5553032;25;20863;-64
2024/04/08 04:30:05;;;;;;;8.57;4.07;;;12.60;99.90;;;;;;5548355;25;20467;-65
2024/04/08 04:32:34;;;;;;;4.37;3.70;;;12.60;99.90;;;;;;5549115;25;20239;-65
2024/04/08 04:35:02;;;;;;;7.27;4.23;;;12.70;99.90;;;;;;5545910;25;20456;-64
2024/04/08 04:37:28;;;;;;;6.67;3.50;;;12.70;99.90;;;;;;5545876;25;20578;-64
2024/04/08 04:39:57;;;;;;;4.53;3.90;;;12.70;99.90;;;;;;5545417;25;20756;-66
2024/04/08 04:42:23;;;;;;;4.53;3.83;;;12.70;99.90;;;;;;5545779;25;20721;-66
2024/04/08 04:44:52;;;;;;;5.83;4.03;;;12.70;99.90;;;;;;5546609;25;20492;-65
2024/04/08 04:47:18;;;;;;;6.13;4.40;;;12.80;99.90;;;;;;5546526;25;20557;-65
2024/04/08 04:49:49;;;;;;;4.63;3.70;;;12.70;99.90;;;;;;5546936;25;20464;-65
2024/04/08 04:52:15;;;;;;;5.50;3.80;;;12.80;99.90;;;;;;5546008;25;20328;-64
2024/04/08 04:54:44;;;;;;;5.50;3.90;;;12.80;99.90;;;;;;5546344;25;20455;-65
2024/04/08 04:57:10;;;;;;;6.87;4.43;;;12.80;99.90;;;;;;5546613;25;20511;-65
2024/04/08 04:59:38;;;;;;;4.67;3.30;;;12.80;99.90;;;;;;5545941;25;20985;-65
2024/04/08 05:02:04;;;;;;;4.90;3.80;;;12.80;99.90;;;;;;5545664;25;21095;-65
2024/04/08 05:04:33;;;;;;;7.60;3.37;;;12.80;99.90;;;;;;5546180;25;20463;-65
2024/04/08 05:07:01;;;;;;;5.03;3.43;;;12.80;99.90;;;;;;5545739;25;20288;-65
2024/04/08 05:09:29;;;;;;;8.67;3.73;;;12.80;99.90;;;;;;5545709;25;20504;-66
2024/04/08 05:11:55;;;;;;;5.47;3.47;;;12.80;99.90;;;;;;5545885;25;20804;-65
2024/04/08 05:14:23;;;;;;;4.10;3.70;;;12.80;99.90;;;;;;5546087;25;20452;-65
2024/04/08 05:16:49;;;;;;;4.90;4.07;;;12.70;99.90;;;;;;5545509;25;20276;-64
2024/04/08 05:19:18;;;;;;;4.23;3.73;;;12.70;99.90;;;;;;5544770;25;20530;-66
2024/04/08 05:21:44;;;;;;;4.17;3.67;;;12.70;99.90;;;;;;5545166;25;20254;-65
2024/04/08 05:24:15;;;;;;;4.07;3.67;;;12.70;99.90;;;;;;5544607;25;20440;-65
2024/04/08 05:26:41;;;;;;;5.37;4.00;;;12.70;99.90;;;;;;5527476;25;20261;-65
2024/04/08 05:29:09;;;;;;;5.30;3.53;;;12.70;99.90;;;;;;5528630;25;20565;-65
2024/04/08 05:31:35;;;;;;;5.80;4.10;;;12.70;99.90;;;;;;5532809;25;20240;-63
2024/04/08 05:34:03;;;;;;;6.20;3.40;;;12.70;99.90;;;;;;5534762;25;20973;-63
2024/04/08 05:36:29;;;;;;;6.00;3.20;;;12.70;99.90;;;;;;5535542;25;20224;-62
2024/04/08 05:38:57;;;;;;;4.80;3.60;;;12.80;99.90;;;;;;5533856;25;20558;-63
2024/04/08 05:41:26;;;;;;;4.57;3.37;;;12.80;99.90;;;;;;5531856;25;20306;-62
2024/04/08 05:43:54;;;;;;;7.30;3.43;;;12.90;99.90;;;;;;5532740;25;20444;-62
2024/04/08 05:46:20;;;;;;;6.10;3.07;;;12.90;99.90;;;;;;5530339;25;20565;-63
2024/04/08 05:48:49;;;;;;;5.40;2.53;;;13.00;99.90;;;;;;5532303;25;20445;-63
2024/04/08 05:51:14;;;;;;;6.90;3.40;;;13.00;99.90;;;;;;5530580;25;20512;-62
2024/04/08 05:53:43;;;;;;;3.93;2.87;;;13.00;99.90;;;;;;5528959;25;20558;-63
2024/04/08 05:56:09;;;;;;;3.73;3.30;;;13.00;99.90;;;;;;5529518;25;20598;-64
2024/04/08 05:58:40;;;;;;;4.77;3.90;;;13.10;99.90;;;;;;5529474;25;20547;-62
2024/04/08 06:01:05;;;;;;;5.90;3.90;;;13.20;99.90;;;;;;5529267;25;20721;-62
2024/04/08 06:03:34;;;;;;;9.97;3.90;;;13.30;99.90;;;;;;5529305;25;20534;-63
2024/04/08 06:06:00;;;;;;;3.90;3.37;;;13.30;99.90;;;;;;5528832;25;20361;-63
2024/04/08 06:08:28;;;;;;;6.10;3.90;;;13.30;99.90;;;;;;5528644;25;20465;-63
2024/04/08 06:11:01;;;;;;;3.97;3.50;;;13.20;99.90;;;;;;5528777;25;20231;-63
2024/04/08 06:13:30;;;;;;;4.93;3.20;;;13.20;99.90;;;;;;5528132;25;20520;-63
2024/04/08 06:15:59;;;;;;;6.13;2.90;;;13.20;99.90;;;;;;5529107;25;20497;-65
2024/04/08 06:18:27;;;;;;;4.40;3.37;;;13.30;99.90;;;;;;5529044;25;20958;-63
2024/04/08 06:20:53;;;;;;;4.70;3.37;;;13.30;99.90;;;;;;5529941;25;20449;-64
2024/04/08 06:23:22;;;;;;;6.73;3.47;;;13.40;99.90;;;;;;5530248;25;20461;-63
2024/04/08 06:25:56;;;;;;;4.53;2.97;;;13.40;99.90;;;;;;5530678;25;20850;-64
2024/04/08 06:28:24;;;;;;;3.57;2.60;;;13.50;99.90;;;;;;5529493;25;20456;-63
2024/04/08 06:30:50;;;;;;;3.30;2.83;;;13.50;99.90;;;;;;5529594;25;20487;-64
2024/04/08 06:33:21;;;;;;;4.67;3.03;;;13.50;99.90;;;;;;5529013;25;20465;-63
2024/04/08 06:35:47;;;;;;;3.97;3.50;;;13.60;99.90;;;;;;5529157;25;20200;-63
2024/04/08 06:38:16;;;;;;;3.97;3.40;;;13.60;99.90;;;;;;5529184;25;21096;-62
2024/04/08 06:40:42;;;;;;;4.43;2.93;;;13.70;99.90;;;;;;5529338;25;20916;-62
2024/04/08 06:43:10;;;;;;;3.83;3.40;;;13.80;99.90;;;;;;5531618;25;20893;-62
2024/04/08 06:45:36;;;;;;;3.13;2.70;;;13.80;99.90;;;;;;5530748;25;20577;-63
2024/04/08 06:48:06;;;;;;;4.60;2.83;;;13.90;99.90;;;;;;5529749;25;20441;-61
2024/04/08 06:50:34;;;;;;;4.83;2.63;;;13.90;99.90;;;;;;5530919;25;20268;-62
2024/04/08 06:53:03;;;;;;;4.27;2.50;;;14.00;99.90;;;;;;5530119;25;20528;-62
2024/04/08 06:55:28;;;;;;;5.00;2.17;;;14.10;99.90;;;;;;5528385;25;20444;-62
2024/04/08 06:57:57;;;;;;;5.60;2.93;;;14.20;99.90;;;;;;5529799;25;20456;-63
2024/04/08 07:00:24;;;;;;;5.43;2.70;;;14.20;99.90;;;;;;5528337;25;20355;-65
2024/04/08 07:02:53;;;;;;;2.83;2.50;;;14.30;99.90;;;;;;5527955;25;20831;-62
2024/04/08 07:05:18;;;;;;;3.47;2.63;;;14.30;99.90;;;;;;5528760;25;20511;-64
2024/04/08 07:07:49;;;;;;;2.80;2.20;;;14.30;99.90;;;;;;5528077;25;20539;-64
2024/04/08 07:10:15;;;;;;;2.90;2.20;;;14.40;99.90;;;;;;5527995;25;20321;-63
2024/04/08 07:12:44;;;;;;;3.27;2.67;;;14.40;99.90;;;;;;5527970;25;20918;-63
2024/04/08 07:15:09;;;;;;;3.67;2.50;;;14.40;99.90;;;;;;5528412;25;20220;-63
2024/04/08 07:17:38;;;;;;;3.93;2.77;;;14.50;99.90;;;;;;5527784;25;20576;-63
2024/04/08 07:20:05;;;;;;;3.50;2.80;;;14.50;99.90;;;;;;5528458;25;20292;-63
2024/04/08 07:22:33;;;;;;;4.20;2.93;;;14.60;99.90;;;;;;5527613;25;21111;-63
2024/04/08 07:25:03;;;;;;;3.43;2.30;;;14.60;99.90;;;;;;5529366;25;20493;-63
2024/04/08 07:27:31;;;;;;;3.60;2.90;;;14.70;99.90;;;;;;5532522;25;20563;-64
2024/04/08 07:29:57;;;;;;;5.47;2.83;;;14.70;99.90;;;;;;5532807;25;20589;-63
2024/04/08 07:32:26;;;;;;;5.03;3.23;;;14.70;99.90;;;;;;5529232;25;20476;-63
2024/04/08 07:34:55;;;;;;;4.23;2.70;;;14.70;99.90;;;;;;5528002;25;20204;-64
2024/04/08 07:37:20;;;;;;;4.80;3.23;;;14.80;99.90;;;;;;5526990;25;20516;-63
2024/04/08 07:39:49;;;;;;;7.73;3.87;;;14.90;99.90;;;;;;5527194;25;20563;-63
2024/04/08 07:42:17;;;;;;;5.70;3.90;;;14.90;99.90;;;;;;5526695;25;20936;-63
2024/04/08 07:44:46;;;;;;;5.30;3.97;;;15.00;99.90;;;;;;5527438;25;20445;-64
2024/04/08 07:47:12;;;;;;;5.13;3.30;;;15.10;99.90;;;;;;5527304;25;20492;-62
2024/04/08 07:49:40;;;;;;;6.73;3.90;;;15.20;99.90;;;;;;5525898;25;21086;-63
2024/04/08 07:52:06;;;;;;;5.70;3.90;;;15.30;99.90;;;;;;5527935;25;20224;-63
2024/04/08 07:54:36;;;;;;;9.33;5.70;;;15.30;99.90;;;;;;5527547;25;20534;-62
2024/04/08 07:57:02;;;;;;;9.57;7.57;;;15.40;99.90;;;;;;5527519;25;20216;-63
2024/04/08 07:59:33;;;;;;;9.33;6.67;;;15.50;99.90;;;;;;5526603;25;20445;-63
2024/04/08 08:01:59;;;;;;;11.20;6.97;;;15.60;99.90;;;;;;5526746;25;20325;-62
2024/04/08 08:04:27;;;;;;;10.37;5.80;;;15.70;99.90;;;;;;5526477;25;20812;-62
2024/04/08 08:06:53;;;;;;;10.90;6.63;;;15.80;99.90;;;;;;5526676;25;20333;-62
2024/04/08 08:09:21;;;;;;;8.93;6.50;;;15.90;99.90;;;;;;5526416;25;20461;-63
2024/04/08 08:11:50;;;;;;;9.73;7.40;;;16.00;99.90;;;;;;5526332;25;20592;-62
2024/04/08 08:14:18;;;;;;;10.20;7.43;;;15.90;99.90;;;;;;5526329;25;20539;-62
2024/04/08 08:16:50;;;;;;;9.50;7.17;;;15.80;99.90;;;;;;5526013;25;20512;-62
2024/04/08 08:19:19;;;;;;;11.70;7.63;;;15.80;99.90;;;;;;5526411;25;20530;-64
2024/04/08 08:21:47;;;;;;;15.00;11.00;;;15.80;99.90;;;;;;5526264;25;20465;-63
2024/04/08 08:24:15;;;;;;;12.13;10.07;;;15.90;99.90;;;;;;5526477;25;20558;-63
2024/04/08 08:26:45;;;;;;;13.03;9.80;;;16.10;99.90;;;;;;5526227;25;20942;-62
2024/04/08 08:29:13;;;;;;;10.63;8.50;;;16.40;99.90;;;;;;5526575;25;21102;-63
2024/04/08 08:31:42;;;;;;;13.90;8.97;;;16.60;99.90;;;;;;5526449;25;20476;-61
2024/04/08 08:34:12;;;;;;;11.13;8.43;;;16.90;99.90;;;;;;5526269;25;20460;-63
2024/04/08 08:36:38;;;;;;;12.00;8.87;;;17.30;99.90;;;;;;5526410;25;20515;-62
2024/04/08 08:39:07;;;;;;;11.80;8.80;;;17.50;99.90;;;;;;5525685;25;20456;-63
2024/04/08 08:41:38;;;;;;;10.67;8.97;;;17.70;99.90;;;;;;5526484;25;20520;-62
2024/04/08 08:44:05;;;;;;;12.40;9.67;;;17.80;99.90;;;;;;5526457;25;20449;-64
2024/04/08 08:46:34;;;;;;;11.47;9.97;;;17.90;99.90;;;;;;5527484;25;20460;-63
2024/04/08 08:49:01;;;;;;;16.50;14.70;;;17.90;99.90;;;;;;5528378;25;20464;-62
2024/04/08 08:51:34;;;;;;;16.10;13.10;;;18.00;99.90;;;;;;5529077;25;20445;-63
2024/04/08 08:54:00;;;;;;;19.17;14.43;;;18.00;99.90;;;;;;5526687;25;20501;-63
2024/04/08 08:56:32;;;;;;;15.00;13.43;;;18.00;99.90;;;;;;5526133;25;20520;-62
2024/04/08 08:59:00;;;;;;;15.03;13.00;;;18.10;99.90;;;;;;5525967;25;20448;-63
2024/04/08 09:01:31;;;;;;;17.00;14.73;;;18.30;99.90;;;;;;5529176;25;20460;-63
2024/04/08 09:03:57;;;;;;;19.87;15.77;;;18.40;99.90;;;;;;5529806;25;20468;-62
2024/04/08 09:06:25;;;;;;;15.40;13.80;;;18.50;99.90;;;;;;5530005;25;20565;-62
2024/04/08 09:08:54;;;;;;;16.03;13.03;;;18.60;99.90;;;;;;5530785;25;20504;-62
2024/04/08 09:11:22;;;;;;;15.80;14.13;;;18.50;99.90;;;;;;5534740;25;20504;-62
2024/04/08 09:13:50;;;;;;;16.00;13.20;;;18.50;99.90;;;;;;5534686;26;20509;-62
2024/04/08 09:16:23;;;;;;;17.00;14.20;;;18.40;99.90;;;;;;5531945;25;20448;-63
2024/04/08 09:18:49;;;;;;;18.37;14.20;;;18.40;99.90;;;;;;5530943;25;20500;-62
2024/04/08 09:21:17;;;;;;;21.00;16.87;;;18.50;99.90;;;;;;5529074;25;21048;-63
2024/04/08 09:23:46;;;;;;;17.27;15.47;;;18.40;99.90;;;;;;5529426;25;20223;-62
2024/04/08 09:26:17;;;;;;;19.63;15.17;;;18.50;99.90;;;;;;5529584;25;20504;-63
2024/04/08 09:28:43;;;;;;;16.47;14.70;;;18.60;99.90;;;;;;5529334;25;21064;-64
2024/04/08 09:31:11;;;;;;;18.47;14.80;;;18.60;99.90;;;;;;5532303;25;20452;-64
2024/04/08 09:33:37;;;;;;;15.30;13.70;;;18.70;99.90;;;;;;5529982;25;20271;-61
2024/04/08 09:36:06;;;;;;;18.60;15.03;;;18.80;99.90;;;;;;5530906;25;21080;-62
2024/04/08 09:38:32;;;;;;;17.43;14.73;;;18.90;99.90;;;;;;5533850;25;20500;-62
2024/04/08 09:41:01;;;;;;;16.27;14.57;;;19.10;99.90;;;;;;5531513;25;20497;-62
2024/04/08 09:43:31;;;;;;;18.63;16.43;;;19.20;99.90;;;;;;5529978;25;20525;-62
2024/04/08 09:46:02;;;;;;;17.33;14.30;;;19.30;99.90;;;;;;5532877;25;20452;-63
2024/04/08 09:48:30;;;;;;;18.23;16.33;;;19.40;99.90;;;;;;5531729;25;20448;-62
2024/04/08 09:51:02;;;;;;;16.50;14.70;;;19.50;99.90;;;;;;5530598;25;21013;-63
2024/04/08 09:53:32;;;;;;;16.50;14.40;;;19.60;99.90;;;;;;5530555;25;20457;-63
2024/04/08 09:56:06;;;;;;;21.97;15.80;;;19.70;99.90;;;;;;5530141;25;20512;-63
2024/04/08 09:58:39;;;;;;;20.40;15.13;;;19.80;99.90;;;;;;5529029;25;20516;-64
2024/04/08 10:01:08;;;;;;;16.93;14.53;;;19.90;99.90;;;;;;5530969;25;20879;-64
2024/04/08 10:03:42;;;;;;;16.60;14.50;;;20.00;99.90;;;;;;5529992;25;20516;-63
2024/04/08 10:06:12;;;;;;;17.90;14.30;;;19.80;99.90;;;;;;5529860;25;20496;-63
2024/04/08 10:08:39;;;;;;;17.27;14.47;;;19.80;99.90;;;;;;5529458;25;20492;-65
2024/04/08 10:11:07;;;;;;;16.00;13.87;;;19.80;99.90;;;;;;5528757;25;20505;-63
2024/04/08 10:13:44;;;;;;;17.70;13.60;;;20.00;99.90;;;;;;5529723;25;20528;-62
2024/04/08 10:16:15;;;;;;;17.57;15.33;;;20.10;99.90;;;;;;5530253;25;20476;-63
2024/04/08 10:18:50;;;;;;;16.77;15.07;;;20.20;99.90;;;;;;5530150;25;20452;-64
2024/04/08 10:21:19;;;;;;;20.03;13.43;;;20.30;99.90;;;;;;5529443;25;20456;-63
2024/04/08 10:23:44;;;;;;;16.20;14.60;;;20.50;99.90;;;;;;5530212;25;20453;-63
2024/04/08 10:26:16;;;;;;;15.03;13.30;;;20.60;99.90;;;;;;5530195;25;20558;-62
2024/04/08 10:28:44;;;;;;;16.90;14.97;;;20.70;99.90;;;;;;5530221;25;20215;-64
2024/04/08 10:31:15;;;;;;;16.00;14.40;;;20.70;99.90;;;;;;5529926;25;20970;-63
2024/04/08 10:33:41;;;;;;;15.47;13.97;;;20.70;99.90;;;;;;5530039;25;20558;-62
2024/04/08 10:36:10;;;;;;;15.17;13.60;;;20.70;99.90;;;;;;5529644;25;20558;-62
2024/04/08 10:38:36;;;;;;;19.07;11.53;;;20.70;99.90;;;;;;5528993;25;20501;-63
2024/04/08 10:41:08;;;;;;;15.37;12.80;;;20.70;99.90;;;;;;5529422;25;20445;-64
2024/04/08 10:43:34;;;;;;;16.53;12.40;;;20.70;99.90;;;;;;5528709;25;20599;-62
2024/04/08 10:46:06;;;;;;;14.23;11.97;;;20.70;99.90;;;;;;5528077;25;20445;-62
2024/04/08 10:48:32;;;;;;;15.83;12.37;;;20.80;99.90;;;;;;5527930;25;20495;-63
2024/04/08 10:51:02;;;;;;;16.27;12.50;;;21.00;99.90;;;;;;5528856;25;20448;-63
2024/04/08 10:53:28;;;;;;;19.20;13.50;;;21.10;99.90;;;;;;5529383;25;20362;-63
2024/04/08 10:55:56;;;;;;;13.93;12.40;;;21.20;99.90;;;;;;5528914;25;20511;-62
2024/04/08 10:58:23;;;;;;;15.83;11.90;;;21.30;99.50;;;;;;5531808;25;20583;-64
2024/04/08 11:00:51;;;;;;;15.43;13.40;;;21.40;98.80;;;;;;5532624;25;20445;-63
2024/04/08 11:03:21;;;;;;;12.20;10.80;;;21.30;98.50;;;;;;5529272;25;20453;-62
2024/04/08 11:05:50;;;;;;;13.30;11.53;;;21.30;98.50;;;;;;5528805;25;20468;-63
2024/04/08 11:08:16;;;;;;;11.50;10.20;;;21.40;98.50;;;;;;5528970;25;20520;-63
2024/04/08 11:10:47;;;;;;;13.53;9.67;;;21.50;97.90;;;;;;5528787;25;20461;-63
2024/04/08 11:13:13;;;;;;;10.83;9.33;;;21.70;97.30;;;;;;5528076;25;20587;-63
2024/04/08 11:15:41;;;;;;;16.60;8.80;;;21.80;96.20;;;;;;5526879;25;20493;-63
2024/04/08 11:18:09;;;;;;;11.80;8.60;;;21.90;95.60;;;;;;5528276;25;20452;-63
2024/04/08 11:20:40;;;;;;;11.90;9.30;;;22.00;94.80;;;;;;5527761;25;21055;-62
2024/04/08 11:23:06;;;;;;;14.17;8.90;;;22.10;94.20;;;;;;5526095;25;21111;-61
2024/04/08 11:25:35;;;;;;;10.43;8.40;;;22.20;93.70;;;;;;5528287;25;20456;-63
2024/04/08 11:28:01;;;;;;;11.00;8.30;;;22.20;93.10;;;;;;5529043;25;20317;-63
2024/04/08 11:30:35;;;;;;;11.80;9.67;;;22.30;92.70;;;;;;5533233;25;20470;-65
2024/04/08 11:33:02;;;;;;;14.93;7.50;;;22.40;92.40;;;;;;5536698;25;20399;-63
2024/04/08 11:35:31;;;;;;;12.70;6.83;;;22.40;91.50;;;;;;5537839;25;20444;-63
2024/04/08 11:38:00;;;;;;;10.10;6.67;;;22.40;90.30;;;;;;5537462;25;21022;-64
2024/04/08 11:40:28;;;;;;;9.87;6.77;;;22.30;90.50;;;;;;5536997;25;20517;-64
2024/04/08 11:42:54;;;;;;;7.30;5.47;;;22.20;90.00;;;;;;5532646;25;20517;-63
2024/04/08 11:45:25;;;;;;;8.53;6.27;;;22.30;90.00;;;;;;5532043;25;20942;-64
2024/04/08 11:47:51;;;;;;;11.03;7.07;;;22.30;89.00;;;;;;5529276;25;20457;-63
2024/04/08 11:50:19;;;;;;;10.63;7.83;;;22.50;88.30;;;;;;5529107;25;20561;-63
2024/04/08 11:52:45;;;;;;;8.60;6.90;;;22.70;87.20;;;;;;5527903;25;20268;-62
2024/04/08 11:55:16;;;;;;;10.13;6.23;;;22.80;86.80;;;;;;5526944;25;20921;-63
2024/04/08 11:57:42;;;;;;;8.83;6.40;;;23.00;85.50;;;;;;5527997;25;20949;-64
2024/04/08 12:00:16;;;;;;;8.70;6.83;;;23.00;83.40;;;;;;5527181;25;20504;-63
2024/04/08 12:02:42;;;;;;;12.20;6.40;;;22.90;82.30;;;;;;5526725;25;20220;-64
2024/04/08 12:05:10;;;;;;;8.73;5.43;;;22.80;82.80;;;;;;5526674;25;20516;-64
2024/04/08 12:07:36;;;;;;;7.90;5.33;;;22.80;82.30;;;;;;5526602;25;20315;-64
2024/04/08 12:10:09;;;;;;;8.03;5.63;;;22.70;82.00;;;;;;5527191;25;20453;-63
2024/04/08 12:12:37;;;;;;;12.40;7.90;;;22.60;81.30;;;;;;5527621;25;20534;-63
2024/04/08 12:15:07;;;;;;;9.70;6.00;;;22.50;80.10;;;;;;5528046;25;20507;-64
2024/04/08 12:17:33;;;;;;;9.40;7.00;;;22.50;79.60;;;;;;5527978;25;20546;-63
2024/04/08 12:20:01;;;;;;;8.80;6.00;;;22.70;79.40;;;;;;5527168;25;20440;-63
2024/04/08 12:22:28;;;;;;;9.90;5.80;;;22.90;79.20;;;;;;5527178;25;20517;-64
2024/04/08 12:24:56;;;;;;;7.80;5.47;;;23.10;78.50;;;;;;5526913;25;20469;-63
2024/04/08 12:27:28;;;;;;;10.80;6.17;;;23.30;77.60;;;;;;5527097;25;20456;-62
2024/04/08 12:29:56;;;;;;;11.30;6.23;;;23.50;76.80;;;;;;5527208;25;20792;-63
2024/04/08 12:32:24;;;;;;;8.57;6.00;;;23.60;76.50;;;;;;5526697;25;20468;-63
2024/04/08 12:34:51;;;;;;;10.23;6.30;;;23.60;75.50;;;;;;5528993;25;20456;-63
2024/04/08 12:37:20;;;;;;;8.87;6.50;;;23.70;75.60;;;;;;5531302;25;20488;-63
2024/04/08 12:39:46;;;;;;;11.13;7.00;;;23.60;75.30;;;;;;5531181;25;21048;-64
2024/04/08 12:42:14;;;;;;;12.30;6.60;;;23.60;75.70;;;;;;5530367;25;20546;-64
2024/04/08 12:44:40;;;;;;;9.17;5.83;;;23.60;75.50;;;;;;5531376;25;20710;-64
2024/04/08 12:47:11;;;;;;;8.60;5.27;;;23.70;75.20;;;;;;5531199;25;20456;-63